createdAt,value
2022-10-23T00:01:34.976Z,10.91
2022-10-23T00:04:16.132Z,10.87
2022-10-23T00:06:44.269Z,10.84
2022-10-23T00:09:13.422Z,10.80
2022-10-23T00:11:41.747Z,10.79
2022-10-23T00:14:09.327Z,10.76
2022-10-23T00:16:37.056Z,10.71
2022-10-23T00:19:04.430Z,10.69
2022-10-23T00:21:31.872Z,10.60
2022-10-23T00:23:59.174Z,10.60
2022-10-23T00:26:26.616Z,10.59
2022-10-23T00:28:54.711Z,10.55
2022-10-23T00:31:23.209Z,10.50
2022-10-23T00:33:51.140Z,10.46
2022-10-23T00:36:20.788Z,10.44
2022-10-23T00:38:48.673Z,10.43
2022-10-23T00:41:28.595Z,10.40
2022-10-23T00:44:30.519Z,10.36
2022-10-23T00:46:59.556Z,10.31
2022-10-23T00:49:28.426Z,10.33
2022-10-23T00:52:01.519Z,10.31
2022-10-23T00:54:32.678Z,10.26
2022-10-23T00:57:01.996Z,10.23
2022-10-23T00:59:29.677Z,10.20
2022-10-23T01:01:57.033Z,10.21
2022-10-23T01:04:25.523Z,10.19
2022-10-23T01:06:55.665Z,10.21
2022-10-23T01:09:26.567Z,10.16
2022-10-23T01:12:02.551Z,10.12
2022-10-23T01:14:38.098Z,10.13
2022-10-23T01:17:20.239Z,10.13
2022-10-23T01:20:13.346Z,10.11
2022-10-23T01:22:59.133Z,10.10
2022-10-23T01:25:29.216Z,10.05
2022-10-23T01:28:01.421Z,10.04
2022-10-23T01:30:29.391Z,9.99
2022-10-23T01:33:00.876Z,9.98
2022-10-23T01:35:32.417Z,9.98
2022-10-23T01:38:20.144Z,10.00
2022-10-23T01:41:03.013Z,9.98
2022-10-23T01:43:42.401Z,9.98
2022-10-23T01:46:14.339Z,9.96
2022-10-23T01:48:44.371Z,9.98
2022-10-23T01:51:14.164Z,9.97
2022-10-23T01:53:43.836Z,9.92
2022-10-23T01:56:13.402Z,9.90
2022-10-23T01:58:43.200Z,9.86
2022-10-23T02:01:11.778Z,9.84
2022-10-23T02:03:39.496Z,9.86
2022-10-23T02:06:07.016Z,9.81
2022-10-23T02:08:34.357Z,9.80
2022-10-23T02:11:14.638Z,9.79
2022-10-23T02:14:22.340Z,9.75
2022-10-23T02:16:54.865Z,9.74
2022-10-23T02:19:45.927Z,9.68
2022-10-23T02:22:37.475Z,9.66
2022-10-23T02:25:14.495Z,9.66
2022-10-23T02:27:48.187Z,9.66
2022-10-23T02:30:17.670Z,9.64
2022-10-23T02:32:50.604Z,9.62
2022-10-23T02:35:19.621Z,9.61
2022-10-23T02:37:57.905Z,9.55
2022-10-23T02:40:42.055Z,9.51
2022-10-23T02:43:14.578Z,9.51
2022-10-23T02:45:52.947Z,9.50
2022-10-23T02:48:29.716Z,9.48
2022-10-23T02:51:11.711Z,9.41
2022-10-23T02:53:44.933Z,9.38
2022-10-23T02:56:33.457Z,9.36
2022-10-23T02:59:11.278Z,9.34
2022-10-23T03:02:15.374Z,9.26
2022-10-23T03:04:42.990Z,9.27
2022-10-23T03:07:12.142Z,9.23
2022-10-23T03:09:39.515Z,9.20
2022-10-23T03:12:06.555Z,9.20
2022-10-23T03:14:33.586Z,9.18
2022-10-23T03:17:00.629Z,9.15
2022-10-23T03:19:27.729Z,9.14
2022-10-23T03:21:54.761Z,9.15
2022-10-23T03:24:21.816Z,9.11
2022-10-23T03:26:48.921Z,9.06
2022-10-23T03:29:16.118Z,9.06
2022-10-23T03:31:43.262Z,9.05
2022-10-23T03:34:11.489Z,9.06
2022-10-23T03:36:38.561Z,9.04
2022-10-23T03:39:05.686Z,9.03
2022-10-23T03:41:32.761Z,9.00
2022-10-23T03:44:00.040Z,8.97
2022-10-23T03:46:27.354Z,8.98
2022-10-23T03:48:56.780Z,8.96
2022-10-23T03:51:24.041Z,8.97
2022-10-23T03:53:51.151Z,8.99
2022-10-23T03:56:18.220Z,8.96
2022-10-23T03:58:45.591Z,8.93
2022-10-23T04:01:12.907Z,8.92
2022-10-23T04:03:39.998Z,8.93
2022-10-23T04:06:07.354Z,8.93
2022-10-23T04:08:34.452Z,8.91
2022-10-23T04:11:01.617Z,8.88
2022-10-23T04:13:28.649Z,8.85
2022-10-23T04:15:55.729Z,8.83
2022-10-23T04:18:22.783Z,8.83
2022-10-23T04:20:50.359Z,8.83
2022-10-23T04:23:17.733Z,8.86
2022-10-23T04:25:44.792Z,8.85
2022-10-23T04:28:11.970Z,8.84
2022-10-23T04:30:39.358Z,8.85
2022-10-23T04:33:06.419Z,8.85
2022-10-23T04:35:33.654Z,8.83
2022-10-23T04:38:00.722Z,8.80
2022-10-23T04:40:27.787Z,8.78
2022-10-23T04:42:54.838Z,8.78
2022-10-23T04:45:21.909Z,8.75
2022-10-23T04:47:48.972Z,8.75
2022-10-23T04:50:16.362Z,8.74
2022-10-23T04:52:43.816Z,8.68
2022-10-23T04:55:11.130Z,8.70
2022-10-23T04:57:38.243Z,8.69
2022-10-23T05:00:07.776Z,8.69
2022-10-23T05:02:34.846Z,8.67
2022-10-23T05:05:01.933Z,8.63
2022-10-23T05:07:28.992Z,8.60
2022-10-23T05:09:56.182Z,8.60
2022-10-23T05:12:25.478Z,8.57
2022-10-23T05:14:53.047Z,8.56
2022-10-23T05:17:33.290Z,8.53
2022-10-23T05:20:03.173Z,8.53
2022-10-23T05:22:32.992Z,8.51
2022-10-23T05:25:02.212Z,8.46
2022-10-23T05:27:29.312Z,8.41
2022-10-23T05:29:56.390Z,8.40
2022-10-23T05:32:25.702Z,8.38
2022-10-23T05:34:53.603Z,8.33
2022-10-23T05:37:21.044Z,8.35
2022-10-23T05:39:48.267Z,8.34
2022-10-23T05:42:15.520Z,8.32
2022-10-23T05:44:42.815Z,8.31
2022-10-23T05:47:09.996Z,8.29
2022-10-23T05:49:37.322Z,8.31
2022-10-23T05:52:04.660Z,8.30
2022-10-23T05:54:31.989Z,8.31
2022-10-23T05:56:59.219Z,8.32
2022-10-23T05:59:26.296Z,8.29
2022-10-23T06:01:53.396Z,8.27
2022-10-23T06:04:20.745Z,8.27
2022-10-23T06:06:47.813Z,8.28
2022-10-23T06:09:15.698Z,8.29
2022-10-23T06:11:43.318Z,8.27
2022-10-23T06:14:10.613Z,8.30
2022-10-23T06:16:37.714Z,8.28
2022-10-23T06:19:04.759Z,8.27
2022-10-23T06:21:31.781Z,8.28
2022-10-23T06:23:58.824Z,8.32
2022-10-23T06:26:26.307Z,8.35
2022-10-23T06:28:53.661Z,8.36
2022-10-23T06:31:23.749Z,8.38
2022-10-23T06:33:50.881Z,8.42
2022-10-23T06:36:17.896Z,8.44
2022-10-23T06:38:44.972Z,8.48
2022-10-23T06:41:20.416Z,8.54
2022-10-23T06:43:48.873Z,8.58
2022-10-23T06:46:16.629Z,8.60
2022-10-23T06:48:44.095Z,8.64
2022-10-23T06:51:13.423Z,8.67
2022-10-23T06:53:40.815Z,8.71
2022-10-23T06:56:08.509Z,8.76
2022-10-23T06:58:37.379Z,8.80
2022-10-23T07:01:07.207Z,8.86
2022-10-23T07:03:34.975Z,8.89
2022-10-23T07:06:06.494Z,8.93
2022-10-23T07:08:33.895Z,9.00
2022-10-23T07:11:05.564Z,9.09
2022-10-23T07:13:34.330Z,9.20
2022-10-23T07:16:27.592Z,9.35
2022-10-23T07:18:59.301Z,9.47
2022-10-23T07:21:31.162Z,9.63
2022-10-23T07:23:58.616Z,9.78
2022-10-23T07:26:25.696Z,9.95
2022-10-23T07:28:55.240Z,10.11
2022-10-23T07:31:25.771Z,10.28
2022-10-23T07:33:55.492Z,10.42
2022-10-23T07:36:22.683Z,10.56
2022-10-23T07:38:51.151Z,10.72
2022-10-23T07:41:18.479Z,10.88
2022-10-23T07:43:45.621Z,11.03
2022-10-23T07:46:12.808Z,11.17
2022-10-23T07:48:40.419Z,11.30
2022-10-23T07:51:11.870Z,11.42
2022-10-23T07:53:39.673Z,11.54
2022-10-23T07:56:21.343Z,11.66
2022-10-23T07:58:49.161Z,11.79
2022-10-23T08:01:26.006Z,11.89
2022-10-23T08:03:53.607Z,11.99
2022-10-23T08:06:20.895Z,12.12
2022-10-23T08:08:47.980Z,12.24
2022-10-23T08:11:16.118Z,12.37
2022-10-23T08:13:44.391Z,12.47
2022-10-23T08:16:11.967Z,12.57
2022-10-23T08:18:40.978Z,12.68
2022-10-23T08:21:08.432Z,12.82
2022-10-23T08:23:35.442Z,12.97
2022-10-23T08:26:05.296Z,13.12
2022-10-23T08:28:33.086Z,13.32
2022-10-23T08:31:10.547Z,13.50
2022-10-23T08:33:38.401Z,13.67
2022-10-23T08:36:06.274Z,13.87
2022-10-23T08:38:33.929Z,14.06
2022-10-23T08:41:02.719Z,14.25
2022-10-23T08:43:39.007Z,14.40
2022-10-23T08:46:14.582Z,14.50
2022-10-23T08:48:46.926Z,14.62
2022-10-23T08:51:26.566Z,14.74
2022-10-23T08:54:23.675Z,14.93
2022-10-23T08:56:58.712Z,15.13
2022-10-23T08:59:32.840Z,15.25
2022-10-23T09:02:22.412Z,15.36
2022-10-23T09:04:52.004Z,15.41
2022-10-23T09:07:48.060Z,15.46
2022-10-23T09:10:36.940Z,15.52
2022-10-23T09:13:26.649Z,15.56
2022-10-23T09:16:13.812Z,15.63
2022-10-23T09:18:41.968Z,15.80
2022-10-23T09:21:10.098Z,15.86
2022-10-23T09:23:37.891Z,15.99
2022-10-23T09:26:13.212Z,16.07
2022-10-23T09:28:57.521Z,16.12
2022-10-23T09:31:24.568Z,16.19
2022-10-23T09:34:01.463Z,16.25
2022-10-23T09:36:29.798Z,16.31
2022-10-23T09:38:59.027Z,16.36
2022-10-23T09:41:39.754Z,16.40
2022-10-23T09:44:29.729Z,16.49
2022-10-23T09:47:11.167Z,16.57
2022-10-23T09:49:40.424Z,16.70
2022-10-23T09:52:10.143Z,16.79
2022-10-23T09:54:39.664Z,16.92
2022-10-23T09:57:23.788Z,17.05
2022-10-23T09:59:56.167Z,17.27
2022-10-23T10:02:36.815Z,17.43
2022-10-23T10:05:24.006Z,17.59
2022-10-23T10:08:06.984Z,17.76
2022-10-23T10:10:41.120Z,17.93
2022-10-23T10:13:36.571Z,18.14
2022-10-23T10:16:09.209Z,18.25
2022-10-23T10:18:53.055Z,18.37
2022-10-23T10:21:57.871Z,18.52
2022-10-23T10:25:02.675Z,18.66
2022-10-23T10:28:03.680Z,18.76
2022-10-23T10:30:45.145Z,18.83
2022-10-23T10:33:21.539Z,18.94
2022-10-23T10:36:20.923Z,18.96
2022-10-23T10:38:50.715Z,18.99
2022-10-23T10:41:30.058Z,19.04
2022-10-23T10:44:22.459Z,19.08
2022-10-23T10:46:55.181Z,19.10
2022-10-23T10:49:46.878Z,19.12
2022-10-23T10:52:22.294Z,19.12
2022-10-23T10:55:17.226Z,19.11
2022-10-23T10:57:47.456Z,19.08
2022-10-23T11:00:23.408Z,19.05
2022-10-23T11:02:59.021Z,19.03
2022-10-23T11:05:33.236Z,19.05
2022-10-23T11:08:10.387Z,19.11
2022-10-23T11:10:41.781Z,19.14
2022-10-23T11:13:38.964Z,19.12
2022-10-23T11:16:13.265Z,19.09
2022-10-23T11:18:45.365Z,19.11
2022-10-23T11:21:35.049Z,19.12
2022-10-23T11:24:11.251Z,19.11
2022-10-23T11:26:56.127Z,19.14
2022-10-23T11:29:30.738Z,19.18
2022-10-23T11:32:20.695Z,19.21
2022-10-23T11:35:24.542Z,19.17
2022-10-23T11:38:16.167Z,19.15
2022-10-23T11:43:55.390Z,19.10
2022-10-23T11:46:25.466Z,19.09
2022-10-23T11:48:54.599Z,19.10
2022-10-23T11:51:33.473Z,19.07
2022-10-23T11:54:16.382Z,19.05
2022-10-23T11:57:10.905Z,19.06
2022-10-23T11:59:53.413Z,19.02
2022-10-23T12:02:38.069Z,18.95
2022-10-23T12:05:25.722Z,18.93
2022-10-23T12:07:57.907Z,18.90
2022-10-23T12:10:50.641Z,18.88
2022-10-23T12:13:50.195Z,18.76
2022-10-23T12:16:17.294Z,18.68
2022-10-23T12:19:18.531Z,18.60
2022-10-23T12:21:46.322Z,18.57
2022-10-23T12:24:34.777Z,18.54
2022-10-23T12:27:11.324Z,18.55
2022-10-23T12:30:09.959Z,18.47
2022-10-23T12:32:40.345Z,18.34
2022-10-23T12:35:19.761Z,18.24
2022-10-23T12:38:16.317Z,18.14
2022-10-23T12:40:51.649Z,18.08
2022-10-23T12:43:31.353Z,18.04
2022-10-23T12:46:04.582Z,18.02
2022-10-23T12:48:32.971Z,18.06
2022-10-23T12:51:00.017Z,18.07
2022-10-23T12:53:27.495Z,18.04
2022-10-23T12:56:01.433Z,18.02
2022-10-23T12:58:31.994Z,18.04
2022-10-23T13:01:02.030Z,18.06
2022-10-23T13:03:30.954Z,18.04
2022-10-23T13:05:58.852Z,18.06
2022-10-23T13:08:32.301Z,18.06
2022-10-23T13:10:59.851Z,18.07
2022-10-23T13:13:26.957Z,18.06
2022-10-23T13:15:54.036Z,18.04
2022-10-23T13:18:21.103Z,18.04
2022-10-23T13:20:51.195Z,18.03
2022-10-23T13:23:34.889Z,18.01
2022-10-23T13:26:21.481Z,18.01
2022-10-23T13:28:48.624Z,18.05
2022-10-23T13:31:15.621Z,18.06
2022-10-23T13:33:48.302Z,18.07
2022-10-23T13:36:15.317Z,18.06
2022-10-23T13:38:58.567Z,18.06
2022-10-23T13:41:27.044Z,18.00
2022-10-23T13:43:54.092Z,17.96
2022-10-23T13:46:23.713Z,17.92
2022-10-23T13:48:51.268Z,17.90
2022-10-23T13:51:23.408Z,17.88
2022-10-23T13:53:51.243Z,17.85
2022-10-23T13:56:20.578Z,17.85
2022-10-23T13:58:48.461Z,17.84
2022-10-23T14:01:33.805Z,17.82
2022-10-23T14:04:00.924Z,17.81
2022-10-23T14:06:27.984Z,17.80
2022-10-23T14:08:55.009Z,17.80
2022-10-23T14:11:22.660Z,17.82
2022-10-23T14:13:50.089Z,17.81
2022-10-23T14:16:19.239Z,17.77
2022-10-23T14:18:46.489Z,17.77
2022-10-23T14:21:15.774Z,17.79
2022-10-23T14:23:42.860Z,17.80
2022-10-23T14:26:11.853Z,17.78
2022-10-23T14:28:38.917Z,17.75
2022-10-23T14:31:07.884Z,17.72
2022-10-23T14:33:34.938Z,17.69
2022-10-23T14:36:01.993Z,17.68
2022-10-23T14:38:29.453Z,17.69
2022-10-23T14:40:56.537Z,17.68
2022-10-23T14:43:24.319Z,17.67
2022-10-23T14:45:51.666Z,17.63
2022-10-23T14:48:18.968Z,17.57
2022-10-23T14:50:48.396Z,17.52
2022-10-23T14:53:15.835Z,17.46
2022-10-23T14:55:42.917Z,17.41
2022-10-23T14:58:09.994Z,17.38
2022-10-23T15:00:37.051Z,17.35
2022-10-23T15:03:04.128Z,17.31
2022-10-23T15:05:31.325Z,17.28
2022-10-23T15:07:59.087Z,17.24
2022-10-23T15:10:26.158Z,17.18
2022-10-23T15:12:53.208Z,17.12
2022-10-23T15:15:20.277Z,17.07
2022-10-23T15:17:47.327Z,17.03
2022-10-23T15:20:14.450Z,17.01
2022-10-23T15:22:41.645Z,16.97
2022-10-23T15:25:09.181Z,16.94
2022-10-23T15:27:37.650Z,16.92
2022-10-23T15:30:05.082Z,16.88
2022-10-23T15:32:32.159Z,16.84
2022-10-23T15:35:00.074Z,16.83
2022-10-23T15:37:27.192Z,16.79
2022-10-23T15:39:57.194Z,16.75
2022-10-23T15:42:26.772Z,16.72
2022-10-23T15:44:54.056Z,16.69
2022-10-23T15:47:21.177Z,16.71
2022-10-23T15:49:48.398Z,16.67
2022-10-23T15:52:15.516Z,16.65
2022-10-23T15:54:42.587Z,16.61
2022-10-23T15:57:09.984Z,16.58
2022-10-23T15:59:37.045Z,16.54
2022-10-23T16:02:04.174Z,16.50
2022-10-23T16:04:31.422Z,16.47
2022-10-23T16:06:58.497Z,16.45
2022-10-23T16:09:25.701Z,16.40
2022-10-23T16:11:52.774Z,16.36
2022-10-23T16:14:20.009Z,16.30
2022-10-23T16:16:47.050Z,16.27
2022-10-23T16:19:14.267Z,16.24
2022-10-23T16:21:41.639Z,16.20
2022-10-23T16:24:09.016Z,16.21
2022-10-23T16:26:36.799Z,16.20
2022-10-23T16:29:06.519Z,16.25
2022-10-23T16:31:33.945Z,16.20
2022-10-23T16:34:01.549Z,16.17
2022-10-23T16:36:29.454Z,16.12
2022-10-23T16:38:56.546Z,16.10
2022-10-23T16:41:23.923Z,16.06
2022-10-23T16:43:51.098Z,16.09
2022-10-23T16:46:19.854Z,16.05
2022-10-23T16:48:47.641Z,16.02
2022-10-23T16:51:17.145Z,15.99
2022-10-23T16:53:45.042Z,15.98
2022-10-23T16:56:15.271Z,15.95
2022-10-23T16:58:42.988Z,15.92
2022-10-23T17:01:19.872Z,15.88
2022-10-23T17:03:49.142Z,15.86
2022-10-23T17:06:20.667Z,15.86
2022-10-23T17:08:48.077Z,15.87
2022-10-23T17:11:21.355Z,15.91
2022-10-23T17:13:55.169Z,15.92
2022-10-23T17:16:35.339Z,15.97
2022-10-23T17:19:08.353Z,15.97
2022-10-23T17:21:40.217Z,15.95
2022-10-23T17:24:08.069Z,15.90
2022-10-23T17:26:35.664Z,15.84
2022-10-23T17:29:05.824Z,15.79
2022-10-23T17:31:34.824Z,15.76
2022-10-23T17:34:04.902Z,15.79
2022-10-23T17:36:34.943Z,15.77
2022-10-23T17:39:04.623Z,15.74
2022-10-23T17:41:32.148Z,15.80
2022-10-23T17:43:59.885Z,15.81
2022-10-23T17:46:27.615Z,15.83
2022-10-23T17:48:57.688Z,15.85
2022-10-23T17:51:27.342Z,15.88
2022-10-23T17:53:56.104Z,15.87
2022-10-23T17:56:27.164Z,15.88
2022-10-23T17:58:56.586Z,15.86
2022-10-23T18:01:25.309Z,15.87
2022-10-23T18:03:53.448Z,15.86
2022-10-23T18:06:25.846Z,15.85
2022-10-23T18:08:56.488Z,15.89
2022-10-23T18:11:30.024Z,15.90
2022-10-23T18:16:30.510Z,15.90
2022-10-23T18:18:59.774Z,15.87
2022-10-23T18:21:26.911Z,15.85
2022-10-23T18:23:54.232Z,15.85
2022-10-23T18:26:26.504Z,15.84
2022-10-23T18:28:59.204Z,15.82
2022-10-23T18:31:29.640Z,15.80
2022-10-23T18:33:58.468Z,15.75
2022-10-23T18:36:27.923Z,15.75
2022-10-23T18:41:28.081Z,15.72
2022-10-23T18:43:55.149Z,15.69
2022-10-23T18:46:22.328Z,15.71
2022-10-23T18:48:52.680Z,15.75
2022-10-23T18:51:28.445Z,15.75
2022-10-23T18:53:55.915Z,15.73
2022-10-23T18:56:26.096Z,15.74
2022-10-23T19:01:31.044Z,15.78
2022-10-23T19:03:59.487Z,15.78
2022-10-23T19:06:27.667Z,15.83
2022-10-23T19:08:55.740Z,15.83
2022-10-23T19:11:24.009Z,15.84
2022-10-23T19:13:51.117Z,15.88
2022-10-23T19:16:28.076Z,15.88
2022-10-23T19:18:59.576Z,15.92
2022-10-23T19:21:31.474Z,15.94
2022-10-23T19:24:02.311Z,15.96
2022-10-23T19:26:30.826Z,16.01
2022-10-23T19:28:58.117Z,16.03
2022-10-23T19:31:28.065Z,16.04
2022-10-23T19:33:55.137Z,16.04
2022-10-23T19:36:23.444Z,16.05
2022-10-23T19:38:51.109Z,16.07
2022-10-23T19:41:18.889Z,16.05
2022-10-23T19:43:46.142Z,15.98
2022-10-23T19:46:13.214Z,15.98
2022-10-23T19:48:44.432Z,15.96
2022-10-23T19:51:15.349Z,15.92
2022-10-23T19:53:42.884Z,15.95
2022-10-23T19:56:11.755Z,15.93
2022-10-23T19:58:39.094Z,15.95
2022-10-23T20:01:07.978Z,15.97
2022-10-23T20:03:35.088Z,15.97
2022-10-23T20:06:02.199Z,15.99
2022-10-23T20:08:32.682Z,15.99
2022-10-23T20:11:02.113Z,15.99
2022-10-23T20:13:29.176Z,16.01
2022-10-23T20:15:56.365Z,16.04
2022-10-23T20:18:23.470Z,16.07
2022-10-23T20:20:50.510Z,16.12
2022-10-23T20:23:17.617Z,16.14
2022-10-23T20:25:44.708Z,16.15
2022-10-23T20:28:14.426Z,16.17
2022-10-23T20:30:44.011Z,16.20
2022-10-23T20:33:11.673Z,16.20
2022-10-23T20:35:43.005Z,16.21
2022-10-23T20:38:10.184Z,16.23
2022-10-23T20:40:37.569Z,16.20
2022-10-23T20:43:04.768Z,16.12
2022-10-23T20:45:32.003Z,16.12
2022-10-23T20:47:59.088Z,16.13
2022-10-23T20:50:26.139Z,16.11
2022-10-23T20:52:53.219Z,16.15
2022-10-23T20:55:20.297Z,16.11
2022-10-23T20:57:47.564Z,16.03
2022-10-23T21:00:15.593Z,15.97
2022-10-23T21:02:45.778Z,15.91
2022-10-23T21:05:14.354Z,15.76
2022-10-23T21:07:41.381Z,15.66
2022-10-23T21:10:08.712Z,15.60
2022-10-23T21:12:35.772Z,15.51
2022-10-23T21:15:02.847Z,15.46
2022-10-23T21:17:35.213Z,15.38
2022-10-23T21:20:02.769Z,15.26
2022-10-23T21:22:30.009Z,15.21
2022-10-23T21:24:58.407Z,15.17
2022-10-23T21:27:25.886Z,15.05
2022-10-23T21:29:52.969Z,15.02
2022-10-23T21:32:20.831Z,14.96
2022-10-23T21:34:47.956Z,14.96
2022-10-23T21:37:15.402Z,14.90
2022-10-23T21:39:43.470Z,14.87
2022-10-23T21:42:12.125Z,14.77
2022-10-23T21:44:39.464Z,14.77
2022-10-23T21:47:07.011Z,14.74
2022-10-23T21:49:34.113Z,14.72
2022-10-23T21:52:01.179Z,14.68
2022-10-23T21:54:28.276Z,14.65
2022-10-23T21:56:55.418Z,14.59
2022-10-23T21:59:28.896Z,14.57
2022-10-23T22:01:58.846Z,14.52
2022-10-23T22:04:26.083Z,14.49
2022-10-23T22:06:53.591Z,14.50
2022-10-23T22:09:21.523Z,14.44
2022-10-23T22:11:50.161Z,14.41
2022-10-23T22:14:17.498Z,14.33
2022-10-23T22:16:44.606Z,14.28
2022-10-23T22:19:13.486Z,14.26
2022-10-23T22:21:41.166Z,14.27
2022-10-23T22:24:09.081Z,14.19
2022-10-23T22:26:38.842Z,14.10
2022-10-23T22:29:08.720Z,14.05
2022-10-23T22:31:36.373Z,13.93
2022-10-23T22:34:18.717Z,13.89
2022-10-23T22:36:56.157Z,13.90
2022-10-23T22:39:23.418Z,13.90
2022-10-23T22:41:50.718Z,13.91
2022-10-23T22:44:18.490Z,13.92
2022-10-23T22:46:46.499Z,13.94
2022-10-23T22:49:13.584Z,13.95
2022-10-23T22:51:40.882Z,13.97
2022-10-23T22:54:08.021Z,13.99
2022-10-23T22:56:35.511Z,13.94
2022-10-23T22:59:03.310Z,13.94
2022-10-23T23:01:45.721Z,13.87
2022-10-23T23:04:36.874Z,13.87
2022-10-23T23:07:09.646Z,13.86
2022-10-23T23:09:39.023Z,13.84
2022-10-23T23:12:08.647Z,13.80
2022-10-23T23:14:36.641Z,13.79
2022-10-23T23:17:05.545Z,13.72
2022-10-23T23:19:32.688Z,13.68
2022-10-23T23:22:00.350Z,13.63
2022-10-23T23:24:27.578Z,13.53
2022-10-23T23:26:54.656Z,13.46
2022-10-23T23:29:21.875Z,13.42
2022-10-23T23:31:48.936Z,13.50
2022-10-23T23:34:16.002Z,13.76
2022-10-23T23:36:43.119Z,13.99
2022-10-23T23:39:10.346Z,14.23
2022-10-23T23:41:37.630Z,14.52
2022-10-23T23:44:05.337Z,14.75
2022-10-23T23:46:32.847Z,15.01
2022-10-23T23:49:00.018Z,15.21
2022-10-23T23:51:27.151Z,15.45
2022-10-23T23:53:54.377Z,15.59
2022-10-23T23:56:21.960Z,15.72
2022-10-23T23:58:50.923Z,15.81
